createdAt,value
2023-01-28T00:00:12.829Z,2.31
2023-01-28T00:02:41.351Z,2.19
2023-01-28T00:05:10.459Z,2.20
2023-01-28T00:07:38.926Z,2.22
2023-01-28T00:10:08.671Z,2.19
2023-01-28T00:12:37.115Z,2.13
2023-01-28T00:15:08.707Z,2.24
2023-01-28T00:17:37.333Z,2.22
2023-01-28T00:20:06.846Z,2.17
2023-01-28T00:22:35.230Z,2.08
2023-01-28T00:25:03.793Z,2.18
2023-01-28T00:27:32.170Z,2.21
2023-01-28T00:30:00.634Z,2.21
2023-01-28T00:32:30.464Z,2.22
2023-01-28T00:34:58.903Z,2.25
2023-01-28T00:37:27.360Z,2.12
2023-01-28T00:39:55.878Z,2.16
2023-01-28T00:42:26.187Z,2.15
2023-01-28T00:44:57.434Z,2.19
2023-01-28T00:47:25.802Z,2.10
2023-01-28T00:49:56.106Z,2.07
2023-01-28T00:52:24.571Z,2.10
2023-01-28T00:54:52.940Z,1.96
2023-01-28T00:57:21.316Z,2.00
2023-01-28T00:59:49.779Z,1.98
2023-01-28T01:02:20.213Z,2.01
2023-01-28T01:04:59.479Z,1.93
2023-01-28T01:07:42.097Z,1.93
2023-01-28T01:10:12.615Z,2.02
2023-01-28T01:12:41.469Z,1.97
2023-01-28T01:15:13.278Z,2.05
2023-01-28T01:17:45.401Z,2.08
2023-01-28T01:20:17.741Z,2.05
2023-01-28T01:22:47.614Z,2.05
2023-01-28T01:25:18.644Z,2.03
2023-01-28T01:27:49.965Z,2.10
2023-01-28T01:30:21.383Z,2.17
2023-01-28T01:32:49.865Z,2.16
2023-01-28T01:35:18.777Z,2.20
2023-01-28T01:37:48.691Z,2.17
2023-01-28T01:40:17.806Z,2.12
2023-01-28T01:42:46.179Z,2.22
2023-01-28T01:45:17.459Z,2.18
2023-01-28T01:47:53.564Z,2.26
2023-01-28T01:50:29.128Z,2.19
2023-01-28T01:53:03.685Z,2.17
2023-01-28T01:55:37.935Z,2.22
2023-01-28T01:58:12.317Z,2.15
2023-01-28T02:00:41.776Z,2.14
2023-01-28T02:03:11.666Z,2.23
2023-01-28T02:05:41.263Z,2.21
2023-01-28T02:08:26.590Z,2.16
2023-01-28T02:11:01.032Z,2.16
2023-01-28T02:13:34.278Z,2.13
2023-01-28T02:16:04.527Z,2.11
2023-01-28T02:18:34.170Z,2.00
2023-01-28T02:21:55.631Z,2.03
2023-01-28T02:25:09.184Z,1.96
2023-01-28T02:27:52.423Z,2.00
2023-01-28T02:30:29.470Z,1.97
2023-01-28T02:33:02.574Z,1.92
2023-01-28T02:35:36.861Z,1.95
2023-01-28T02:38:11.115Z,1.97
2023-01-28T02:40:57.895Z,1.94
2023-01-28T02:43:37.360Z,1.97
2023-01-28T02:46:37.195Z,2.06
2023-01-28T02:49:11.173Z,1.98
2023-01-28T02:51:59.077Z,1.92
2023-01-28T02:54:39.471Z,2.02
2023-01-28T02:57:22.478Z,1.89
2023-01-28T02:59:59.987Z,1.87
2023-01-28T03:02:37.931Z,1.92
2023-01-28T03:05:13.178Z,1.86
2023-01-28T03:07:42.837Z,1.94
2023-01-28T03:10:17.083Z,2.06
2023-01-28T03:13:05.465Z,1.87
2023-01-28T03:16:00.389Z,1.95
2023-01-28T03:18:52.408Z,1.89
2023-01-28T03:21:44.026Z,1.87
2023-01-28T03:24:36.015Z,1.89
2023-01-28T03:27:33.286Z,1.96
2023-01-28T03:30:32.417Z,1.87
2023-01-28T03:33:25.112Z,1.85
2023-01-28T03:36:11.591Z,1.89
2023-01-28T03:38:43.146Z,1.91
2023-01-28T03:41:21.637Z,1.82
2023-01-28T03:43:50.781Z,1.80
2023-01-28T03:46:18.581Z,1.91
2023-01-28T03:48:48.585Z,1.96
2023-01-28T03:51:17.998Z,1.99
2023-01-28T03:53:46.565Z,1.93
2023-01-28T03:56:19.580Z,1.95
2023-01-28T03:58:53.790Z,1.92
2023-01-28T04:01:22.882Z,1.94
2023-01-28T04:03:52.974Z,1.85
2023-01-28T04:06:29.005Z,1.90
2023-01-28T04:09:09.890Z,1.96
2023-01-28T04:12:02.650Z,1.97
2023-01-28T04:14:37.208Z,1.94
2023-01-28T04:17:10.905Z,1.85
2023-01-28T04:19:42.005Z,1.92
2023-01-28T04:22:12.563Z,1.86
2023-01-28T04:24:42.566Z,1.88
2023-01-28T04:27:11.000Z,1.97
2023-01-28T04:29:39.559Z,1.82
2023-01-28T04:32:34.157Z,1.82
2023-01-28T04:35:09.425Z,1.89
2023-01-28T04:37:49.623Z,1.86
2023-01-28T04:40:38.298Z,1.92
2023-01-28T04:43:12.117Z,1.91
2023-01-28T04:45:53.013Z,1.97
2023-01-28T04:48:36.601Z,1.87
2023-01-28T04:51:18.059Z,1.87
2023-01-28T04:54:05.270Z,1.80
2023-01-28T04:56:36.046Z,1.88
2023-01-28T04:59:05.700Z,1.95
2023-01-28T05:01:35.869Z,1.85
2023-01-28T05:04:06.442Z,1.83
2023-01-28T05:06:39.628Z,1.95
2023-01-28T05:09:11.837Z,1.96
2023-01-28T05:11:40.346Z,2.00
2023-01-28T05:14:09.732Z,1.93
2023-01-28T05:16:45.033Z,1.84
2023-01-28T05:19:13.880Z,1.75
2023-01-28T05:21:45.330Z,1.89
2023-01-28T05:24:25.304Z,1.87
2023-01-28T05:26:55.095Z,1.89
2023-01-28T05:29:23.479Z,1.97
2023-01-28T05:31:51.894Z,2.10
2023-01-28T05:34:20.934Z,2.02
2023-01-28T05:36:51.229Z,1.94
2023-01-28T05:39:33.877Z,1.99
2023-01-28T05:42:02.434Z,1.96
2023-01-28T05:44:31.549Z,2.05
2023-01-28T05:47:26.156Z,1.87
2023-01-28T05:50:19.607Z,1.87
2023-01-28T05:53:09.131Z,1.77
2023-01-28T05:55:39.423Z,1.81
2023-01-28T05:58:07.936Z,1.88
2023-01-28T06:00:36.882Z,1.89
2023-01-28T06:03:06.549Z,1.97
2023-01-28T06:05:36.979Z,1.97
2023-01-28T06:08:06.517Z,1.90
2023-01-28T06:10:36.355Z,2.00
2023-01-28T06:13:05.771Z,1.94
2023-01-28T06:15:53.050Z,1.98
2023-01-28T06:18:44.780Z,2.01
2023-01-28T06:21:13.361Z,1.97
2023-01-28T06:23:42.193Z,1.99
2023-01-28T06:26:12.031Z,2.01
2023-01-28T06:28:42.886Z,1.97
2023-01-28T06:31:11.349Z,1.98
2023-01-28T06:33:39.848Z,2.05
2023-01-28T06:36:09.483Z,1.94
2023-01-28T06:38:37.894Z,1.96
2023-01-28T06:41:06.751Z,2.04
2023-01-28T06:43:37.244Z,1.99
2023-01-28T06:46:06.228Z,1.95
2023-01-28T06:48:34.827Z,2.02
2023-01-28T06:51:03.196Z,2.02
2023-01-28T06:53:31.608Z,1.99
2023-01-28T06:55:59.964Z,1.81
2023-01-28T06:58:28.305Z,2.07
2023-01-28T07:00:58.049Z,2.00
2023-01-28T07:03:26.543Z,1.95
2023-01-28T07:05:55.019Z,1.91
2023-01-28T07:08:23.469Z,2.01
2023-01-28T07:10:51.871Z,1.99
2023-01-28T07:13:20.358Z,1.93
2023-01-28T07:15:49.758Z,1.96
2023-01-28T07:18:19.703Z,1.95
2023-01-28T07:20:48.074Z,1.91
2023-01-28T07:23:16.561Z,1.99
2023-01-28T07:25:44.967Z,1.92
2023-01-28T07:28:13.308Z,1.95
2023-01-28T07:30:41.788Z,1.88
2023-01-28T07:33:10.153Z,1.87
2023-01-28T07:35:39.850Z,1.83
2023-01-28T07:38:08.193Z,1.91
2023-01-28T07:40:36.781Z,1.87
2023-01-28T07:43:07.211Z,1.85
2023-01-28T07:45:39.899Z,2.21
2023-01-28T07:48:11.563Z,2.27
2023-01-28T07:50:41.612Z,2.35
2023-01-28T07:53:12.384Z,2.15
2023-01-28T07:55:41.186Z,2.43
2023-01-28T07:58:12.948Z,2.52
2023-01-28T08:00:41.397Z,2.62
2023-01-28T08:03:15.780Z,2.29
2023-01-28T08:05:47.823Z,2.03
2023-01-28T08:08:16.802Z,2.05
2023-01-28T08:10:45.946Z,2.07
2023-01-28T08:13:15.760Z,2.06
2023-01-28T08:15:45.081Z,2.09
2023-01-28T08:18:15.780Z,2.09
2023-01-28T08:20:47.754Z,2.13
2023-01-28T08:23:17.923Z,2.08
2023-01-28T08:25:47.053Z,2.03
2023-01-28T08:28:17.641Z,1.98
2023-01-28T08:30:46.428Z,1.99
2023-01-28T08:33:18.008Z,2.00
2023-01-28T08:35:48.157Z,2.11
2023-01-28T08:38:17.728Z,2.01
2023-01-28T08:40:46.185Z,2.09
2023-01-28T08:43:14.602Z,2.14
2023-01-28T08:45:43.361Z,2.11
2023-01-28T08:48:16.889Z,2.05
2023-01-28T08:50:47.155Z,2.13
2023-01-28T08:53:18.960Z,2.09
2023-01-28T08:55:48.269Z,2.12
2023-01-28T08:58:18.383Z,1.96
2023-01-28T09:00:48.388Z,2.05
2023-01-28T09:03:17.373Z,2.03
2023-01-28T09:05:49.589Z,2.17
2023-01-28T09:08:18.116Z,2.05
2023-01-28T09:10:46.559Z,2.11
2023-01-28T09:13:17.136Z,2.00
2023-01-28T09:15:45.580Z,2.02
2023-01-28T09:18:14.097Z,2.01
2023-01-28T09:20:42.683Z,2.06
2023-01-28T09:23:12.993Z,2.14
2023-01-28T09:25:41.578Z,2.02
2023-01-28T09:28:10.132Z,2.10
2023-01-28T09:30:39.720Z,2.02
2023-01-28T09:33:09.294Z,2.10
2023-01-28T09:35:37.989Z,2.02
2023-01-28T09:38:06.527Z,1.96
2023-01-28T09:40:41.362Z,2.02
2023-01-28T09:43:54.722Z,2.06
2023-01-28T09:46:23.337Z,2.08
2023-01-28T09:48:54.462Z,2.00
2023-01-28T09:51:34.921Z,2.08
2023-01-28T09:54:08.722Z,2.19
2023-01-28T09:56:46.143Z,2.21
2023-01-28T09:59:20.824Z,2.13
2023-01-28T10:01:56.772Z,2.08
2023-01-28T10:04:45.749Z,1.94
2023-01-28T10:07:30.831Z,2.01
2023-01-28T10:10:06.182Z,1.99
2023-01-28T10:13:10.603Z,2.02
2023-01-28T10:15:56.869Z,2.07
2023-01-28T10:18:35.987Z,2.05
2023-01-28T10:21:12.076Z,2.14
2023-01-28T10:23:49.804Z,2.19
2023-01-28T10:26:25.144Z,2.30
2023-01-28T10:29:07.710Z,2.19
2023-01-28T10:31:41.615Z,2.30
2023-01-28T10:34:12.130Z,2.20
2023-01-28T10:36:40.937Z,2.27
2023-01-28T10:39:12.424Z,2.26
2023-01-28T10:41:52.031Z,2.29
2023-01-28T10:44:34.217Z,2.09
2023-01-28T10:47:11.424Z,2.13
2023-01-28T10:49:45.465Z,2.24
2023-01-28T10:52:14.987Z,2.27
2023-01-28T10:54:43.629Z,2.39
2023-01-28T10:57:15.524Z,2.33
2023-01-28T10:59:45.622Z,2.24
2023-01-28T11:02:38.346Z,2.28
2023-01-28T11:05:17.199Z,2.24
2023-01-28T11:07:45.739Z,2.32
2023-01-28T11:10:32.382Z,2.34
2023-01-28T11:13:03.407Z,2.34
2023-01-28T11:15:34.862Z,2.46
2023-01-28T11:18:09.623Z,2.53
2023-01-28T11:20:43.803Z,2.63
2023-01-28T11:23:22.734Z,2.32
2023-01-28T11:26:01.406Z,2.27
2023-01-28T11:28:31.021Z,2.28
2023-01-28T11:31:03.315Z,2.31
2023-01-28T11:33:38.586Z,2.14
2023-01-28T11:36:15.797Z,2.02
2023-01-28T11:38:56.103Z,2.19
2023-01-28T11:41:30.533Z,2.18
2023-01-28T11:44:01.837Z,2.34
2023-01-28T11:47:01.436Z,2.33
2023-01-28T11:49:50.730Z,2.31
2023-01-28T11:52:29.588Z,2.24
2023-01-28T11:55:26.029Z,2.24
2023-01-28T11:58:04.803Z,2.24
2023-01-28T12:00:41.770Z,2.17
2023-01-28T12:03:40.415Z,2.25
2023-01-28T12:06:36.811Z,2.35
2023-01-28T12:09:16.618Z,2.27
2023-01-28T12:12:12.607Z,2.29
2023-01-28T12:15:11.648Z,2.07
2023-01-28T12:17:57.971Z,2.11
2023-01-28T12:20:33.095Z,2.24
2023-01-28T12:23:21.855Z,2.11
2023-01-28T12:26:05.954Z,2.10
2023-01-28T12:28:55.909Z,2.11
2023-01-28T12:32:01.788Z,2.12
2023-01-28T12:34:55.004Z,2.06
2023-01-28T12:37:41.496Z,2.03
2023-01-28T12:40:34.725Z,2.08
2023-01-28T12:43:09.966Z,2.12
2023-01-28T12:45:42.774Z,1.97
2023-01-28T12:48:16.914Z,1.81
2023-01-28T12:50:50.455Z,1.79
2023-01-28T12:53:28.524Z,1.87
2023-01-28T12:56:07.640Z,1.80
2023-01-28T12:58:44.392Z,1.84
2023-01-28T13:01:21.310Z,1.93
2023-01-28T13:03:57.142Z,1.96
2023-01-28T13:06:33.213Z,1.89
2023-01-28T13:09:15.302Z,1.86
2023-01-28T13:11:44.296Z,2.03
2023-01-28T13:14:14.501Z,2.07
2023-01-28T13:16:43.067Z,2.08
2023-01-28T13:19:25.741Z,2.14
2023-01-28T13:21:54.370Z,2.20
2023-01-28T13:24:34.064Z,2.25
2023-01-28T13:27:16.404Z,2.24
2023-01-28T13:29:50.660Z,2.88
2023-01-28T13:32:35.779Z,3.06
2023-01-28T13:35:08.542Z,3.07
2023-01-28T13:37:41.382Z,3.20
2023-01-28T13:40:27.445Z,2.81
2023-01-28T13:43:03.673Z,2.83
2023-01-28T13:45:33.573Z,2.48
2023-01-28T13:48:26.402Z,2.20
2023-01-28T13:50:55.725Z,2.22
2023-01-28T13:53:37.968Z,2.33
2023-01-28T13:56:19.597Z,2.38
2023-01-28T13:59:35.748Z,2.28
2023-01-28T14:02:54.481Z,2.22
2023-01-28T14:05:52.378Z,2.18
2023-01-28T14:09:04.587Z,2.28
2023-01-28T14:12:31.483Z,2.29
2023-01-28T14:15:49.272Z,2.26
2023-01-28T14:18:27.733Z,2.39
2023-01-28T14:20:58.945Z,2.26
2023-01-28T14:23:31.264Z,2.26
2023-01-28T14:26:17.873Z,2.37
2023-01-28T14:29:00.550Z,2.28
2023-01-28T14:31:35.370Z,2.35
2023-01-28T14:34:12.578Z,2.20
2023-01-28T14:36:45.054Z,2.18
2023-01-28T14:39:19.184Z,2.28
2023-01-28T14:41:50.908Z,2.41
2023-01-28T14:44:33.118Z,2.29
2023-01-28T14:47:38.001Z,2.16
2023-01-28T14:50:49.031Z,2.20
2023-01-28T14:53:49.850Z,2.26
2023-01-28T14:56:35.732Z,2.27
2023-01-28T14:59:17.775Z,2.27
2023-01-28T15:01:50.345Z,2.30
2023-01-28T15:04:27.533Z,2.31
2023-01-28T15:06:56.533Z,2.24
2023-01-28T15:09:25.929Z,2.32
2023-01-28T15:11:58.122Z,2.23
2023-01-28T15:14:31.666Z,2.18
2023-01-28T15:17:02.759Z,2.12
2023-01-28T15:19:35.132Z,2.15
2023-01-28T15:22:06.833Z,2.17
2023-01-28T15:24:36.920Z,2.16
2023-01-28T15:27:05.648Z,2.14
2023-01-28T15:29:36.609Z,2.27
2023-01-28T15:32:07.237Z,2.03
2023-01-28T15:34:38.146Z,2.03
2023-01-28T15:37:06.677Z,2.08
2023-01-28T15:39:35.201Z,2.23
2023-01-28T15:42:07.346Z,2.10
2023-01-28T15:44:39.053Z,2.21
2023-01-28T15:47:17.713Z,2.12
2023-01-28T15:49:50.409Z,2.07
2023-01-28T15:52:19.808Z,2.23
2023-01-28T15:54:52.521Z,2.12
2023-01-28T15:57:22.468Z,2.10
2023-01-28T15:59:51.881Z,2.02
2023-01-28T16:02:24.337Z,1.95
2023-01-28T16:05:03.863Z,1.99
2023-01-28T16:07:36.040Z,1.98
2023-01-28T16:10:05.692Z,2.07
2023-01-28T16:12:34.274Z,1.97
2023-01-28T16:15:04.234Z,1.77
2023-01-28T16:17:42.768Z,1.74
2023-01-28T16:20:23.627Z,1.80
2023-01-28T16:22:53.221Z,1.77
2023-01-28T16:25:30.379Z,1.70
2023-01-28T16:28:00.435Z,1.78
2023-01-28T16:30:30.040Z,1.77
2023-01-28T16:33:00.422Z,1.70
2023-01-28T16:35:47.309Z,1.70
2023-01-28T16:38:19.885Z,1.88
2023-01-28T16:40:49.352Z,2.02
2023-01-28T16:43:18.952Z,1.95
2023-01-28T16:45:47.940Z,1.82
2023-01-28T16:48:17.886Z,1.78
2023-01-28T16:50:46.990Z,1.72
2023-01-28T16:53:22.606Z,1.77
2023-01-28T16:55:52.840Z,1.79
2023-01-28T16:58:25.534Z,1.88
2023-01-28T17:00:54.299Z,1.87
2023-01-28T17:03:24.977Z,1.60
2023-01-28T17:05:53.716Z,1.73
2023-01-28T17:08:22.200Z,1.76
2023-01-28T17:10:54.306Z,1.77
2023-01-28T17:13:23.201Z,1.69
2023-01-28T17:15:51.779Z,1.68
2023-01-28T17:18:20.250Z,1.61
2023-01-28T17:20:50.221Z,1.55
2023-01-28T17:23:22.905Z,1.58
2023-01-28T17:25:51.809Z,1.44
2023-01-28T17:28:20.629Z,1.52
2023-01-28T17:30:49.045Z,1.55
2023-01-28T17:33:17.460Z,1.60
2023-01-28T17:35:49.292Z,1.63
2023-01-28T17:38:17.942Z,1.53
2023-01-28T17:40:46.372Z,1.56
2023-01-28T17:43:14.750Z,1.50
2023-01-28T17:45:43.240Z,1.44
2023-01-28T17:48:12.617Z,1.40
2023-01-28T17:50:41.555Z,1.39
2023-01-28T17:53:12.151Z,1.48
2023-01-28T17:55:40.989Z,1.50
2023-01-28T17:58:09.342Z,1.46
2023-01-28T18:00:37.755Z,1.46
2023-01-28T18:03:06.334Z,1.49
2023-01-28T18:05:34.699Z,1.41
2023-01-28T18:08:03.095Z,1.52
2023-01-28T18:10:32.882Z,1.57
2023-01-28T18:13:01.422Z,1.53
2023-01-28T18:15:30.095Z,1.54
2023-01-28T18:17:58.560Z,1.59
2023-01-28T18:20:26.955Z,1.50
2023-01-28T18:22:55.451Z,1.49
2023-01-28T18:25:24.060Z,1.51
2023-01-28T18:27:54.192Z,1.51
2023-01-28T18:30:22.763Z,1.61
2023-01-28T18:32:51.419Z,1.60
2023-01-28T18:35:19.922Z,1.60
2023-01-28T18:37:48.380Z,1.59
2023-01-28T18:40:17.034Z,1.54
2023-01-28T18:42:45.497Z,1.52
2023-01-28T18:45:15.649Z,1.44
2023-01-28T18:47:44.160Z,1.43
2023-01-28T18:50:12.569Z,1.52
2023-01-28T18:52:41.039Z,1.27
2023-01-28T18:55:11.317Z,1.27
2023-01-28T18:57:39.753Z,2.12
2023-01-28T19:00:10.196Z,2.42
2023-01-28T19:02:40.162Z,2.28
2023-01-28T19:05:09.418Z,1.92
2023-01-28T19:07:38.046Z,1.76
2023-01-28T19:10:08.350Z,1.66
2023-01-28T19:12:36.760Z,1.66
2023-01-28T19:15:06.180Z,1.51
2023-01-28T19:17:35.549Z,1.42
2023-01-28T19:20:06.709Z,1.44
2023-01-28T19:22:35.142Z,1.43
2023-01-28T19:25:03.538Z,1.36
2023-01-28T19:27:31.945Z,1.30
2023-01-28T19:30:00.413Z,1.37
2023-01-28T19:32:28.977Z,1.27
2023-01-28T19:34:57.446Z,1.15
2023-01-28T19:37:27.390Z,1.11
2023-01-28T19:39:55.817Z,1.21
2023-01-28T19:42:24.357Z,1.18
2023-01-28T19:44:53.480Z,1.24
2023-01-28T19:47:22.189Z,1.32
2023-01-28T19:49:50.621Z,1.24
2023-01-28T19:52:19.088Z,1.25
2023-01-28T19:54:49.906Z,1.17
2023-01-28T19:57:18.605Z,1.27
2023-01-28T19:59:46.926Z,1.29
2023-01-28T20:02:15.464Z,1.31
2023-01-28T20:04:59.608Z,1.26
2023-01-28T20:07:29.021Z,1.23
2023-01-28T20:09:58.775Z,1.29
2023-01-28T20:12:27.238Z,1.37
2023-01-28T20:14:55.623Z,1.29
2023-01-28T20:17:24.087Z,1.23
2023-01-28T20:19:52.457Z,1.25
2023-01-28T20:22:20.870Z,1.21
2023-01-28T20:24:54.669Z,1.29
2023-01-28T20:27:25.186Z,1.18
2023-01-28T20:29:53.873Z,1.06
2023-01-28T20:32:23.193Z,1.14
2023-01-28T20:34:53.028Z,1.07
2023-01-28T20:37:21.919Z,1.18
2023-01-28T20:39:50.334Z,1.15
2023-01-28T20:42:18.753Z,1.16
2023-01-28T20:44:48.507Z,1.07
2023-01-28T20:47:16.898Z,1.19
2023-01-28T20:49:45.322Z,1.23
2023-01-28T20:52:13.693Z,1.14
2023-01-28T20:54:42.048Z,1.22
2023-01-28T20:57:10.407Z,1.14
2023-01-28T20:59:38.815Z,1.04
2023-01-28T21:02:10.034Z,1.05
2023-01-28T21:04:38.508Z,1.11
2023-01-28T21:07:06.939Z,1.07
2023-01-28T21:09:35.387Z,1.14
2023-01-28T21:12:03.796Z,1.22
2023-01-28T21:14:32.175Z,1.21
2023-01-28T21:17:00.754Z,0.93
2023-01-28T21:19:30.627Z,0.89
2023-01-28T21:21:58.991Z,1.00
2023-01-28T21:24:27.386Z,0.95
2023-01-28T21:26:55.935Z,1.04
2023-01-28T21:29:24.456Z,1.02
2023-01-28T21:31:52.916Z,1.05
2023-01-28T21:34:21.384Z,1.12
2023-01-28T21:36:51.328Z,0.96
2023-01-28T21:39:19.791Z,1.00
2023-01-28T21:41:49.170Z,1.00
2023-01-28T21:44:17.578Z,1.07
2023-01-28T21:46:47.737Z,1.01
2023-01-28T21:49:16.151Z,1.03
2023-01-28T21:51:47.205Z,1.03
2023-01-28T21:54:19.134Z,0.94
2023-01-28T21:56:49.796Z,1.01
2023-01-28T21:59:32.495Z,0.97
2023-01-28T22:02:02.758Z,0.74
2023-01-28T22:04:33.701Z,0.72
2023-01-28T22:07:03.561Z,0.73
2023-01-28T22:09:34.688Z,0.75
2023-01-28T22:12:05.123Z,0.84
2023-01-28T22:14:33.690Z,0.93
2023-01-28T22:17:02.204Z,0.94
2023-01-28T22:19:30.878Z,0.99
2023-01-28T22:21:59.281Z,0.88
2023-01-28T22:24:29.052Z,0.94
2023-01-28T22:27:01.809Z,0.79
2023-01-28T22:29:30.220Z,0.83
2023-01-28T22:31:58.723Z,0.83
2023-01-28T22:34:28.137Z,0.69
2023-01-28T22:36:56.628Z,0.75
2023-01-28T22:39:25.065Z,0.82
2023-01-28T22:41:53.506Z,0.91
2023-01-28T22:44:23.498Z,0.98
2023-01-28T22:46:51.949Z,0.98
2023-01-28T22:49:22.063Z,1.06
2023-01-28T22:51:50.516Z,1.10
2023-01-28T22:54:18.852Z,1.08
2023-01-28T22:56:47.258Z,1.10
2023-01-28T22:59:15.712Z,1.04
2023-01-28T23:01:45.483Z,1.08
2023-01-28T23:04:13.979Z,1.06
2023-01-28T23:06:42.413Z,1.03
2023-01-28T23:09:11.009Z,0.90
2023-01-28T23:11:39.786Z,0.81
2023-01-28T23:14:25.495Z,0.84
2023-01-28T23:17:12.881Z,0.74
2023-01-28T23:19:58.804Z,0.69
2023-01-28T23:22:50.579Z,0.66
2023-01-28T23:25:20.593Z,0.57
2023-01-28T23:27:49.256Z,0.53
2023-01-28T23:30:19.844Z,0.65
2023-01-28T23:32:50.848Z,0.64
2023-01-28T23:35:20.576Z,0.70
2023-01-28T23:37:49.628Z,0.66
2023-01-28T23:40:18.981Z,0.79
2023-01-28T23:42:50.546Z,0.67
2023-01-28T23:45:19.402Z,0.62
2023-01-28T23:47:49.447Z,0.51
2023-01-28T23:50:18.817Z,0.48
2023-01-28T23:52:47.495Z,0.54
2023-01-28T23:55:16.543Z,0.64
2023-01-28T23:57:44.959Z,0.63
